< < Back
Terminal Aerodrome Forecast


Current Version              Previous Versions:   1  2  3  4  5  6  7  8  9  

Terminal Aerodrome Forecast

163
FTUS42 KFFC 192000 AAC
TAFFTY
TAF AMD
KFTY 192036Z 1921/2018 28010KT P6SM VCSH BKN035
      TEMPO 1921/1923 VRB15G25KT 4SM -TSRA BKN030CB
     FM200000 25008KT P6SM SCT035
     FM200700 25004KT P6SM FEW015
     FM201500 29006KT P6SM SCT040=

Latest METAR

847
SAUS70 KWBC 200700 RRB
MTRFTY
METAR KFTY 200653Z 00000KT 10SM CLR 23/21 A2996 RMK AO2 SLP135
T02280211


USA.gov is the U.S. government's official web portal to all federal, state and local government web resources and services.